Aeroporto :
LOGIN :

Iscrizione | Disclaimer

   EN    FR    IT 

 










Sommario :    VFR   VFR Marginale   IFR   IFR Intensivo   IFR Molto Intensivo
Visibilità : 
Base nubi : 
>= 8 km
>= 3000ft
5 / 8 km
1000 / 3000 ft
1500m / 5 km
500 / 1000 ft
800 / 1500m
200 / 500 ft
< 800m
< 200 ft
Simboli :   Temporali  Nebbia  Neve Forte  Precipitazioni Forti  Vento > 20 kt
SIGMETs :   Varie  Temporali  Ghiacco  Turbolenza  Onda orograficha  Ceneri Vulcaniche






- Altitudine del aeroporto : 614 ft
- Codice IATA : CRL


EBCI - Charleroi

ULTIMO METAR :
  • 251020Z 22012KT 9999 FEW030 18/10 Q1019 NOSIG

METARs OBSOLETI :
  • 250950Z 23015KT CAVOK 17/09 Q1019 NOSIG
  • 250920Z 22014KT 9999 BKN049 18/10 Q1019 NOSIG
  • 250850Z 22010KT CAVOK 17/10 Q1019 NOSIG
  • 250820Z 22009KT 180V240 CAVOK 16/11 Q1019 NOSIG
  • 250750Z 23010KT CAVOK 15/10 Q1019 NOSIG
  • 250720Z 22008KT CAVOK 16/10 Q1019 NOSIG

TAF TAF EBCI
Valido dal 25 a 06 ore il 26 a 12 ore UTC


250500Z 2506/2612 22009KT 9999 FEW040
PROB30
TEMPO 2515/2602 RA
TEMPO 2602/2610 4000 RADZ BKN006
PROB30
TEMPO 2603/2607 2000 DZRA BKN003



MetMap, La meteo Aeronautica in un colpo d'occhio ! - Copyright ORBIFLY Dicembre 2007 - Disclaimer

ORBIFLY MET'MAP TEAM :

Programmazione e sviluppo : Alexandra Zaïnal
Concezione : Baudouin d'Aumeries
Aiuto per la programmazione : Marc-Olivier Méhu
Supporto tecnico e logistico : Manuel Goepfert
Aiuto per la traduzione : Arnaldo La Scala

Contatto : metmap@orbifly.com




FONTI E CREDITI :

   NOAA